sensor_id;sensor_type;location;lat;lon;timestamp;P1;durP1;ratioP1;P2;durP2;ratioP2
2650;SDS011;1335;48.180;16.342;2023-07-16T00:00:15;5.40;;;4.90;;
2650;SDS011;1335;48.180;16.342;2023-07-16T00:02:44;5.63;;;4.90;;
2650;SDS011;1335;48.180;16.342;2023-07-16T00:05:11;5.60;;;4.97;;
2650;SDS011;1335;48.180;16.342;2023-07-16T00:07:39;5.13;;;4.73;;
2650;SDS011;1335;48.180;16.342;2023-07-16T00:10:06;6.13;;;4.40;;
2650;SDS011;1335;48.180;16.342;2023-07-16T00:12:35;5.40;;;4.60;;
2650;SDS011;1335;48.180;16.342;2023-07-16T00:15:02;7.20;;;4.87;;
2650;SDS011;1335;48.180;16.342;2023-07-16T00:17:31;7.03;;;5.10;;
2650;SDS011;1335;48.180;16.342;2023-07-16T00:19:57;5.37;;;4.87;;
2650;SDS011;1335;48.180;16.342;2023-07-16T00:22:24;6.63;;;4.90;;
2650;SDS011;1335;48.180;16.342;2023-07-16T00:24:52;5.50;;;5.10;;
2650;SDS011;1335;48.180;16.342;2023-07-16T00:27:19;5.70;;;5.13;;
2650;SDS011;1335;48.180;16.342;2023-07-16T00:29:48;6.50;;;4.87;;
2650;SDS011;1335;48.180;16.342;2023-07-16T00:32:15;6.97;;;5.20;;
2650;SDS011;1335;48.180;16.342;2023-07-16T00:34:42;6.03;;;5.13;;
2650;SDS011;1335;48.180;16.342;2023-07-16T00:37:09;5.20;;;4.80;;
2650;SDS011;1335;48.180;16.342;2023-07-16T00:39:37;11.10;;;4.97;;
2650;SDS011;1335;48.180;16.342;2023-07-16T00:42:04;6.93;;;5.33;;
2650;SDS011;1335;48.180;16.342;2023-07-16T00:44:31;5.27;;;4.80;;
2650;SDS011;1335;48.180;16.342;2023-07-16T00:47:00;5.70;;;5.20;;
2650;SDS011;1335;48.180;16.342;2023-07-16T00:49:27;6.23;;;5.60;;
2650;SDS011;1335;48.180;16.342;2023-07-16T00:51:55;6.03;;;5.47;;
2650;SDS011;1335;48.180;16.342;2023-07-16T00:54:22;6.40;;;5.80;;
2650;SDS011;1335;48.180;16.342;2023-07-16T00:56:49;8.60;;;5.77;;
2650;SDS011;1335;48.180;16.342;2023-07-16T00:59:17;6.23;;;5.73;;
2650;SDS011;1335;48.180;16.342;2023-07-16T01:01:44;5.80;;;5.23;;
2650;SDS011;1335;48.180;16.342;2023-07-16T01:04:13;6.13;;;5.00;;
2650;SDS011;1335;48.180;16.342;2023-07-16T01:06:41;5.93;;;5.33;;
2650;SDS011;1335;48.180;16.342;2023-07-16T01:09:10;8.10;;;5.60;;
2650;SDS011;1335;48.180;16.342;2023-07-16T01:11:37;8.67;;;5.80;;
2650;SDS011;1335;48.180;16.342;2023-07-16T01:14:06;7.03;;;6.33;;
2650;SDS011;1335;48.180;16.342;2023-07-16T01:16:34;6.50;;;5.70;;
2650;SDS011;1335;48.180;16.342;2023-07-16T01:19:02;14.07;;;5.93;;
2650;SDS011;1335;48.180;16.342;2023-07-16T01:21:33;6.30;;;5.70;;
2650;SDS011;1335;48.180;16.342;2023-07-16T01:24:05;6.00;;;5.40;;
2650;SDS011;1335;48.180;16.342;2023-07-16T01:29:31;9.87;;;5.70;;
2650;SDS011;1335;48.180;16.342;2023-07-16T01:31:59;6.23;;;5.57;;
2650;SDS011;1335;48.180;16.342;2023-07-16T01:34:27;5.63;;;5.00;;
2650;SDS011;1335;48.180;16.342;2023-07-16T01:36:55;8.10;;;5.77;;
2650;SDS011;1335;48.180;16.342;2023-07-16T01:39:22;5.80;;;5.30;;
2650;SDS011;1335;48.180;16.342;2023-07-16T01:41:50;6.00;;;5.50;;
2650;SDS011;1335;48.180;16.342;2023-07-16T01:44:17;6.50;;;5.60;;
2650;SDS011;1335;48.180;16.342;2023-07-16T01:46:45;6.60;;;5.10;;
2650;SDS011;1335;48.180;16.342;2023-07-16T01:49:16;6.10;;;5.27;;
2650;SDS011;1335;48.180;16.342;2023-07-16T01:51:43;6.37;;;5.77;;
2650;SDS011;1335;48.180;16.342;2023-07-16T01:54:11;7.10;;;5.70;;
2650;SDS011;1335;48.180;16.342;2023-07-16T01:56:38;6.33;;;5.83;;
2650;SDS011;1335;48.180;16.342;2023-07-16T01:59:05;6.50;;;5.80;;
2650;SDS011;1335;48.180;16.342;2023-07-16T02:01:33;7.77;;;6.60;;
2650;SDS011;1335;48.180;16.342;2023-07-16T02:04:01;6.93;;;6.23;;
2650;SDS011;1335;48.180;16.342;2023-07-16T02:06:28;6.33;;;5.83;;
2650;SDS011;1335;48.180;16.342;2023-07-16T02:08:56;6.40;;;5.77;;
2650;SDS011;1335;48.180;16.342;2023-07-16T02:11:23;7.30;;;5.90;;
2650;SDS011;1335;48.180;16.342;2023-07-16T02:13:50;6.10;;;5.60;;
2650;SDS011;1335;48.180;16.342;2023-07-16T02:16:17;7.10;;;6.40;;
2650;SDS011;1335;48.180;16.342;2023-07-16T02:18:45;8.73;;;6.53;;
2650;SDS011;1335;48.180;16.342;2023-07-16T02:21:14;7.13;;;5.30;;
2650;SDS011;1335;48.180;16.342;2023-07-16T02:23:41;5.93;;;5.43;;
2650;SDS011;1335;48.180;16.342;2023-07-16T02:26:08;5.70;;;5.20;;
2650;SDS011;1335;48.180;16.342;2023-07-16T02:28:35;7.00;;;6.30;;
2650;SDS011;1335;48.180;16.342;2023-07-16T02:31:02;6.20;;;5.63;;
2650;SDS011;1335;48.180;16.342;2023-07-16T02:33:30;6.37;;;5.87;;
2650;SDS011;1335;48.180;16.342;2023-07-16T02:35:57;6.30;;;5.80;;
2650;SDS011;1335;48.180;16.342;2023-07-16T02:38:26;8.10;;;6.67;;
2650;SDS011;1335;48.180;16.342;2023-07-16T02:40:53;6.63;;;6.13;;
2650;SDS011;1335;48.180;16.342;2023-07-16T02:43:20;6.50;;;6.00;;
2650;SDS011;1335;48.180;16.342;2023-07-16T02:45:48;7.10;;;6.00;;
2650;SDS011;1335;48.180;16.342;2023-07-16T02:48:15;7.20;;;6.53;;
2650;SDS011;1335;48.180;16.342;2023-07-16T02:50:42;6.67;;;6.07;;
2650;SDS011;1335;48.180;16.342;2023-07-16T02:53:09;7.43;;;6.67;;
2650;SDS011;1335;48.180;16.342;2023-07-16T02:55:38;6.67;;;6.00;;
2650;SDS011;1335;48.180;16.342;2023-07-16T02:58:05;7.27;;;6.57;;
2650;SDS011;1335;48.180;16.342;2023-07-16T03:00:33;7.40;;;6.73;;
2650;SDS011;1335;48.180;16.342;2023-07-16T03:03:00;7.83;;;6.80;;
2650;SDS011;1335;48.180;16.342;2023-07-16T03:05:28;7.40;;;6.70;;
2650;SDS011;1335;48.180;16.342;2023-07-16T03:07:55;7.23;;;6.60;;
2650;SDS011;1335;48.180;16.342;2023-07-16T03:10:22;7.80;;;7.20;;
2650;SDS011;1335;48.180;16.342;2023-07-16T03:12:53;10.87;;;6.63;;
2650;SDS011;1335;48.180;16.342;2023-07-16T03:15:20;8.03;;;7.33;;
2650;SDS011;1335;48.180;16.342;2023-07-16T03:17:47;6.53;;;6.00;;
2650;SDS011;1335;48.180;16.342;2023-07-16T03:20:15;7.67;;;6.97;;
2650;SDS011;1335;48.180;16.342;2023-07-16T03:22:42;7.27;;;6.73;;
2650;SDS011;1335;48.180;16.342;2023-07-16T03:25:09;7.50;;;6.90;;
2650;SDS011;1335;48.180;16.342;2023-07-16T03:27:36;8.17;;;6.70;;
2650;SDS011;1335;48.180;16.342;2023-07-16T03:30:06;8.03;;;6.50;;
2650;SDS011;1335;48.180;16.342;2023-07-16T03:32:33;7.17;;;6.67;;
2650;SDS011;1335;48.180;16.342;2023-07-16T03:35:00;7.27;;;6.70;;
2650;SDS011;1335;48.180;16.342;2023-07-16T03:37:28;8.10;;;7.40;;
2650;SDS011;1335;48.180;16.342;2023-07-16T03:39:56;10.60;;;7.10;;
2650;SDS011;1335;48.180;16.342;2023-07-16T03:42:23;8.17;;;7.40;;
2650;SDS011;1335;48.180;16.342;2023-07-16T03:44:51;8.40;;;7.70;;
2650;SDS011;1335;48.180;16.342;2023-07-16T03:47:19;9.20;;;8.40;;
2650;SDS011;1335;48.180;16.342;2023-07-16T03:49:47;8.07;;;7.37;;
2650;SDS011;1335;48.180;16.342;2023-07-16T03:52:14;8.13;;;7.43;;
2650;SDS011;1335;48.180;16.342;2023-07-16T03:54:41;7.43;;;6.93;;
2650;SDS011;1335;48.180;16.342;2023-07-16T03:57:08;8.87;;;8.07;;
2650;SDS011;1335;48.180;16.342;2023-07-16T03:59:35;10.93;;;7.37;;
2650;SDS011;1335;48.180;16.342;2023-07-16T04:02:03;8.53;;;7.83;;
2650;SDS011;1335;48.180;16.342;2023-07-16T04:04:32;8.50;;;7.67;;
2650;SDS011;1335;48.180;16.342;2023-07-16T04:06:59;8.30;;;7.60;;
2650;SDS011;1335;48.180;16.342;2023-07-16T04:09:26;8.33;;;7.53;;
2650;SDS011;1335;48.180;16.342;2023-07-16T04:11:53;7.70;;;7.20;;
2650;SDS011;1335;48.180;16.342;2023-07-16T04:14:21;8.00;;;7.30;;
2650;SDS011;1335;48.180;16.342;2023-07-16T04:16:48;8.77;;;7.77;;
2650;SDS011;1335;48.180;16.342;2023-07-16T04:19:15;7.77;;;7.13;;
2650;SDS011;1335;48.180;16.342;2023-07-16T04:21:44;8.93;;;8.03;;
2650;SDS011;1335;48.180;16.342;2023-07-16T04:24:11;8.13;;;7.33;;
2650;SDS011;1335;48.180;16.342;2023-07-16T04:26:38;10.67;;;8.73;;
2650;SDS011;1335;48.180;16.342;2023-07-16T04:29:06;7.77;;;7.27;;
2650;SDS011;1335;48.180;16.342;2023-07-16T04:31:33;8.20;;;7.60;;
2650;SDS011;1335;48.180;16.342;2023-07-16T04:34:00;8.60;;;7.90;;
2650;SDS011;1335;48.180;16.342;2023-07-16T04:36:27;8.87;;;8.27;;
2650;SDS011;1335;48.180;16.342;2023-07-16T04:38:56;8.50;;;7.83;;
2650;SDS011;1335;48.180;16.342;2023-07-16T04:41:23;9.63;;;7.90;;
2650;SDS011;1335;48.180;16.342;2023-07-16T04:43:51;8.90;;;7.57;;
2650;SDS011;1335;48.180;16.342;2023-07-16T04:46:18;8.00;;;7.40;;
2650;SDS011;1335;48.180;16.342;2023-07-16T04:48:45;7.67;;;7.07;;
2650;SDS011;1335;48.180;16.342;2023-07-16T04:51:12;7.70;;;7.20;;
2650;SDS011;1335;48.180;16.342;2023-07-16T04:53:40;7.23;;;6.60;;
2650;SDS011;1335;48.180;16.342;2023-07-16T04:56:12;7.90;;;7.20;;
2650;SDS011;1335;48.180;16.342;2023-07-16T04:58:39;8.20;;;7.50;;
2650;SDS011;1335;48.180;16.342;2023-07-16T05:01:06;6.77;;;6.07;;
2650;SDS011;1335;48.180;16.342;2023-07-16T05:03:34;6.93;;;6.37;;
2650;SDS011;1335;48.180;16.342;2023-07-16T05:06:01;7.70;;;6.90;;
2650;SDS011;1335;48.180;16.342;2023-07-16T05:08:29;7.70;;;7.00;;
2650;SDS011;1335;48.180;16.342;2023-07-16T05:10:56;7.30;;;6.60;;
2650;SDS011;1335;48.180;16.342;2023-07-16T05:13:25;6.37;;;5.70;;
2650;SDS011;1335;48.180;16.342;2023-07-16T05:15:52;5.77;;;5.27;;
2650;SDS011;1335;48.180;16.342;2023-07-16T05:18:20;4.67;;;4.27;;
2650;SDS011;1335;48.180;16.342;2023-07-16T05:20:47;6.07;;;5.47;;
2650;SDS011;1335;48.180;16.342;2023-07-16T05:23:14;5.97;;;5.30;;
2650;SDS011;1335;48.180;16.342;2023-07-16T05:25:45;14.43;;;6.07;;
2650;SDS011;1335;48.180;16.342;2023-07-16T05:28:13;6.27;;;4.70;;
2650;SDS011;1335;48.180;16.342;2023-07-16T05:30:41;5.37;;;4.80;;
2650;SDS011;1335;48.180;16.342;2023-07-16T05:33:09;6.23;;;4.93;;
2650;SDS011;1335;48.180;16.342;2023-07-16T05:35:36;4.83;;;4.53;;
2650;SDS011;1335;48.180;16.342;2023-07-16T05:38:04;5.30;;;4.83;;
2650;SDS011;1335;48.180;16.342;2023-07-16T05:40:31;5.37;;;4.97;;
2650;SDS011;1335;48.180;16.342;2023-07-16T05:42:58;4.33;;;4.03;;
2650;SDS011;1335;48.180;16.342;2023-07-16T05:45:25;5.23;;;4.87;;
2650;SDS011;1335;48.180;16.342;2023-07-16T05:47:54;6.10;;;4.70;;
2650;SDS011;1335;48.180;16.342;2023-07-16T05:50:21;5.03;;;4.63;;
2650;SDS011;1335;48.180;16.342;2023-07-16T05:52:48;6.10;;;3.90;;
2650;SDS011;1335;48.180;16.342;2023-07-16T05:55:16;4.07;;;3.87;;
2650;SDS011;1335;48.180;16.342;2023-07-16T05:57:44;4.30;;;4.00;;
2650;SDS011;1335;48.180;16.342;2023-07-16T06:00:12;4.27;;;3.97;;
2650;SDS011;1335;48.180;16.342;2023-07-16T06:02:39;4.73;;;4.33;;
2650;SDS011;1335;48.180;16.342;2023-07-16T06:05:08;6.10;;;3.90;;
2650;SDS011;1335;48.180;16.342;2023-07-16T06:07:35;4.23;;;3.93;;
2650;SDS011;1335;48.180;16.342;2023-07-16T06:10:03;4.60;;;4.20;;
2650;SDS011;1335;48.180;16.342;2023-07-16T06:12:30;4.13;;;3.80;;
2650;SDS011;1335;48.180;16.342;2023-07-16T06:14:58;5.63;;;4.33;;
2650;SDS011;1335;48.180;16.342;2023-07-16T06:17:25;4.40;;;4.00;;
2650;SDS011;1335;48.180;16.342;2023-07-16T06:19:52;4.67;;;4.30;;
2650;SDS011;1335;48.180;16.342;2023-07-16T06:22:21;4.67;;;4.37;;
2650;SDS011;1335;48.180;16.342;2023-07-16T06:24:48;4.73;;;4.30;;
2650;SDS011;1335;48.180;16.342;2023-07-16T06:27:15;6.30;;;4.20;;
2650;SDS011;1335;48.180;16.342;2023-07-16T06:29:43;7.03;;;4.10;;
2650;SDS011;1335;48.180;16.342;2023-07-16T06:32:10;4.60;;;4.20;;
2650;SDS011;1335;48.180;16.342;2023-07-16T06:34:37;5.17;;;4.00;;
2650;SDS011;1335;48.180;16.342;2023-07-16T06:37:05;4.83;;;4.43;;
2650;SDS011;1335;48.180;16.342;2023-07-16T06:39:34;5.07;;;4.37;;
2650;SDS011;1335;48.180;16.342;2023-07-16T06:42:01;4.90;;;4.40;;
2650;SDS011;1335;48.180;16.342;2023-07-16T06:44:28;8.97;;;4.80;;
2650;SDS011;1335;48.180;16.342;2023-07-16T06:46:56;4.50;;;4.20;;
2650;SDS011;1335;48.180;16.342;2023-07-16T06:49:23;6.33;;;4.63;;
2650;SDS011;1335;48.180;16.342;2023-07-16T06:51:50;4.10;;;3.70;;
2650;SDS011;1335;48.180;16.342;2023-07-16T06:54:18;4.93;;;4.50;;
2650;SDS011;1335;48.180;16.342;2023-07-16T06:56:46;5.67;;;4.60;;
2650;SDS011;1335;48.180;16.342;2023-07-16T06:59:13;5.00;;;3.90;;
2650;SDS011;1335;48.180;16.342;2023-07-16T07:01:41;5.30;;;4.90;;
2650;SDS011;1335;48.180;16.342;2023-07-16T07:04:08;4.57;;;4.20;;
2650;SDS011;1335;48.180;16.342;2023-07-16T07:06:35;4.43;;;4.10;;
2650;SDS011;1335;48.180;16.342;2023-07-16T07:09:03;6.33;;;4.00;;
2650;SDS011;1335;48.180;16.342;2023-07-16T07:11:30;4.30;;;3.60;;
2650;SDS011;1335;48.180;16.342;2023-07-16T07:13:59;4.63;;;3.70;;
2650;SDS011;1335;48.180;16.342;2023-07-16T07:16:26;4.20;;;3.90;;
2650;SDS011;1335;48.180;16.342;2023-07-16T07:18:54;3.90;;;3.50;;
2650;SDS011;1335;48.180;16.342;2023-07-16T07:21:21;4.60;;;3.80;;
2650;SDS011;1335;48.180;16.342;2023-07-16T07:23:48;4.17;;;3.60;;
2650;SDS011;1335;48.180;16.342;2023-07-16T07:26:15;4.10;;;3.80;;
2650;SDS011;1335;48.180;16.342;2023-07-16T07:28:43;4.30;;;3.60;;
2650;SDS011;1335;48.180;16.342;2023-07-16T07:31:11;4.33;;;4.03;;
2650;SDS011;1335;48.180;16.342;2023-07-16T07:33:38;3.77;;;3.50;;
2650;SDS011;1335;48.180;16.342;2023-07-16T07:36:06;3.40;;;3.10;;
2650;SDS011;1335;48.180;16.342;2023-07-16T07:38:33;4.83;;;3.30;;
2650;SDS011;1335;48.180;16.342;2023-07-16T07:41:01;3.27;;;2.90;;
2650;SDS011;1335;48.180;16.342;2023-07-16T07:43:28;3.33;;;3.13;;
2650;SDS011;1335;48.180;16.342;2023-07-16T07:45:55;3.23;;;2.93;;
2650;SDS011;1335;48.180;16.342;2023-07-16T07:48:24;4.27;;;3.73;;
2650;SDS011;1335;48.180;16.342;2023-07-16T07:50:51;3.20;;;3.10;;
2650;SDS011;1335;48.180;16.342;2023-07-16T07:53:18;3.27;;;2.80;;
2650;SDS011;1335;48.180;16.342;2023-07-16T07:55:47;3.37;;;3.17;;
2650;SDS011;1335;48.180;16.342;2023-07-16T07:58:14;3.93;;;3.50;;
2650;SDS011;1335;48.180;16.342;2023-07-16T08:00:41;3.10;;;2.90;;
2650;SDS011;1335;48.180;16.342;2023-07-16T08:03:09;5.63;;;2.90;;
2650;SDS011;1335;48.180;16.342;2023-07-16T08:05:37;2.70;;;2.50;;
2650;SDS011;1335;48.180;16.342;2023-07-16T08:08:04;3.20;;;2.60;;
2650;SDS011;1335;48.180;16.342;2023-07-16T08:10:32;3.77;;;2.77;;
2650;SDS011;1335;48.180;16.342;2023-07-16T08:12:59;3.00;;;2.80;;
2650;SDS011;1335;48.180;16.342;2023-07-16T08:15:26;4.93;;;3.00;;
2650;SDS011;1335;48.180;16.342;2023-07-16T08:17:53;7.50;;;4.27;;
2650;SDS011;1335;48.180;16.342;2023-07-16T08:20:24;3.10;;;2.73;;
2650;SDS011;1335;48.180;16.342;2023-07-16T08:22:52;3.17;;;2.97;;
2650;SDS011;1335;48.180;16.342;2023-07-16T08:25:20;3.40;;;3.20;;
2650;SDS011;1335;48.180;16.342;2023-07-16T08:27:47;3.83;;;3.50;;
2650;SDS011;1335;48.180;16.342;2023-07-16T08:30:14;3.20;;;2.73;;
2650;SDS011;1335;48.180;16.342;2023-07-16T08:32:42;2.83;;;2.73;;
2650;SDS011;1335;48.180;16.342;2023-07-16T08:35:09;2.73;;;2.40;;
2650;SDS011;1335;48.180;16.342;2023-07-16T08:37:41;3.50;;;3.30;;
2650;SDS011;1335;48.180;16.342;2023-07-16T08:40:10;3.60;;;3.30;;
2650;SDS011;1335;48.180;16.342;2023-07-16T08:42:38;3.33;;;3.13;;
2650;SDS011;1335;48.180;16.342;2023-07-16T08:45:06;3.13;;;2.83;;
2650;SDS011;1335;48.180;16.342;2023-07-16T08:47:33;3.20;;;3.00;;
2650;SDS011;1335;48.180;16.342;2023-07-16T08:50:01;2.83;;;2.63;;
2650;SDS011;1335;48.180;16.342;2023-07-16T08:52:29;2.77;;;2.57;;
2650;SDS011;1335;48.180;16.342;2023-07-16T08:54:56;5.03;;;3.03;;
2650;SDS011;1335;48.180;16.342;2023-07-16T08:57:25;2.83;;;2.60;;
2650;SDS011;1335;48.180;16.342;2023-07-16T08:59:53;2.80;;;2.60;;
2650;SDS011;1335;48.180;16.342;2023-07-16T09:02:21;3.10;;;2.80;;
2650;SDS011;1335;48.180;16.342;2023-07-16T09:04:48;2.47;;;2.37;;
2650;SDS011;1335;48.180;16.342;2023-07-16T09:07:16;5.20;;;3.00;;
2650;SDS011;1335;48.180;16.342;2023-07-16T09:09:54;2.60;;;2.40;;
2650;SDS011;1335;48.180;16.342;2023-07-16T09:12:25;3.10;;;2.77;;
2650;SDS011;1335;48.180;16.342;2023-07-16T09:14:53;3.17;;;2.80;;
2650;SDS011;1335;48.180;16.342;2023-07-16T09:17:21;3.87;;;3.30;;
2650;SDS011;1335;48.180;16.342;2023-07-16T09:19:49;2.80;;;2.60;;
2650;SDS011;1335;48.180;16.342;2023-07-16T09:22:17;2.67;;;2.57;;
2650;SDS011;1335;48.180;16.342;2023-07-16T09:24:44;3.17;;;2.97;;
2650;SDS011;1335;48.180;16.342;2023-07-16T09:27:12;2.67;;;2.50;;
2650;SDS011;1335;48.180;16.342;2023-07-16T09:29:41;3.33;;;3.13;;
2650;SDS011;1335;48.180;16.342;2023-07-16T09:32:08;2.70;;;2.50;;
2650;SDS011;1335;48.180;16.342;2023-07-16T09:34:35;2.80;;;2.60;;
2650;SDS011;1335;48.180;16.342;2023-07-16T09:37:03;4.13;;;3.20;;
2650;SDS011;1335;48.180;16.342;2023-07-16T09:39:31;3.77;;;3.10;;
2650;SDS011;1335;48.180;16.342;2023-07-16T09:41:58;3.30;;;3.10;;
2650;SDS011;1335;48.180;16.342;2023-07-16T09:44:26;5.90;;;4.90;;
2650;SDS011;1335;48.180;16.342;2023-07-16T09:46:54;4.40;;;3.17;;
2650;SDS011;1335;48.180;16.342;2023-07-16T09:49:22;4.77;;;2.77;;
2650;SDS011;1335;48.180;16.342;2023-07-16T09:51:49;2.90;;;2.70;;
2650;SDS011;1335;48.180;16.342;2023-07-16T09:54:19;2.70;;;2.50;;
2650;SDS011;1335;48.180;16.342;2023-07-16T09:56:48;2.93;;;2.73;;
2650;SDS011;1335;48.180;16.342;2023-07-16T09:59:17;2.67;;;2.47;;
2650;SDS011;1335;48.180;16.342;2023-07-16T10:01:46;4.80;;;2.73;;
2650;SDS011;1335;48.180;16.342;2023-07-16T10:04:16;3.17;;;2.97;;
2650;SDS011;1335;48.180;16.342;2023-07-16T10:06:50;3.10;;;2.90;;
2650;SDS011;1335;48.180;16.342;2023-07-16T10:09:37;2.97;;;2.77;;
2650;SDS011;1335;48.180;16.342;2023-07-16T10:12:12;3.67;;;2.93;;
2650;SDS011;1335;48.180;16.342;2023-07-16T10:14:40;2.67;;;2.47;;
2650;SDS011;1335;48.180;16.342;2023-07-16T10:17:07;3.07;;;2.87;;
2650;SDS011;1335;48.180;16.342;2023-07-16T10:19:46;3.30;;;3.00;;
2650;SDS011;1335;48.180;16.342;2023-07-16T10:22:14;2.70;;;2.50;;
2650;SDS011;1335;48.180;16.342;2023-07-16T10:24:41;3.00;;;2.80;;
2650;SDS011;1335;48.180;16.342;2023-07-16T10:27:08;3.50;;;2.83;;
2650;SDS011;1335;48.180;16.342;2023-07-16T10:29:36;2.97;;;2.77;;
2650;SDS011;1335;48.180;16.342;2023-07-16T10:32:03;3.20;;;3.00;;
2650;SDS011;1335;48.180;16.342;2023-07-16T10:34:34;3.60;;;3.30;;
2650;SDS011;1335;48.180;16.342;2023-07-16T10:37:03;3.03;;;2.83;;
2650;SDS011;1335;48.180;16.342;2023-07-16T10:39:32;3.53;;;3.33;;
2650;SDS011;1335;48.180;16.342;2023-07-16T10:42:00;3.40;;;3.30;;
2650;SDS011;1335;48.180;16.342;2023-07-16T10:44:28;3.80;;;3.50;;
2650;SDS011;1335;48.180;16.342;2023-07-16T10:46:56;2.83;;;2.63;;
2650;SDS011;1335;48.180;16.342;2023-07-16T10:49:26;3.03;;;2.93;;
2650;SDS011;1335;48.180;16.342;2023-07-16T10:51:54;3.13;;;2.90;;
2650;SDS011;1335;48.180;16.342;2023-07-16T10:54:23;3.20;;;3.10;;
2650;SDS011;1335;48.180;16.342;2023-07-16T10:56:50;3.53;;;3.33;;
2650;SDS011;1335;48.180;16.342;2023-07-16T10:59:18;3.20;;;2.90;;
2650;SDS011;1335;48.180;16.342;2023-07-16T11:01:45;3.40;;;3.20;;
2650;SDS011;1335;48.180;16.342;2023-07-16T11:04:13;3.27;;;3.00;;
2650;SDS011;1335;48.180;16.342;2023-07-16T11:06:40;3.30;;;3.00;;
2650;SDS011;1335;48.180;16.342;2023-07-16T11:09:07;3.23;;;2.90;;
2650;SDS011;1335;48.180;16.342;2023-07-16T11:11:35;3.57;;;3.27;;
2650;SDS011;1335;48.180;16.342;2023-07-16T11:14:04;3.27;;;3.17;;
2650;SDS011;1335;48.180;16.342;2023-07-16T11:16:34;3.20;;;3.00;;
2650;SDS011;1335;48.180;16.342;2023-07-16T11:19:03;3.07;;;2.87;;
2650;SDS011;1335;48.180;16.342;2023-07-16T11:21:33;3.03;;;2.83;;
2650;SDS011;1335;48.180;16.342;2023-07-16T11:24:09;3.40;;;3.20;;
2650;SDS011;1335;48.180;16.342;2023-07-16T11:26:38;3.00;;;2.67;;
2650;SDS011;1335;48.180;16.342;2023-07-16T11:29:12;3.60;;;3.40;;
2650;SDS011;1335;48.180;16.342;2023-07-16T11:31:40;3.93;;;2.80;;
2650;SDS011;1335;48.180;16.342;2023-07-16T11:34:08;2.97;;;2.77;;
2650;SDS011;1335;48.180;16.342;2023-07-16T11:36:39;3.20;;;2.90;;
2650;SDS011;1335;48.180;16.342;2023-07-16T11:39:07;2.53;;;2.33;;
2650;SDS011;1335;48.180;16.342;2023-07-16T11:41:34;3.03;;;2.87;;
2650;SDS011;1335;48.180;16.342;2023-07-16T11:44:03;2.67;;;2.57;;
2650;SDS011;1335;48.180;16.342;2023-07-16T11:46:32;3.13;;;2.93;;
2650;SDS011;1335;48.180;16.342;2023-07-16T11:49:00;3.10;;;2.33;;
2650;SDS011;1335;48.180;16.342;2023-07-16T11:51:28;3.03;;;2.83;;
2650;SDS011;1335;48.180;16.342;2023-07-16T11:53:56;2.90;;;2.80;;
2650;SDS011;1335;48.180;16.342;2023-07-16T11:56:23;3.20;;;2.90;;
2650;SDS011;1335;48.180;16.342;2023-07-16T11:58:50;2.80;;;2.60;;
2650;SDS011;1335;48.180;16.342;2023-07-16T12:01:19;2.47;;;2.37;;
2650;SDS011;1335;48.180;16.342;2023-07-16T12:03:46;2.60;;;2.50;;
2650;SDS011;1335;48.180;16.342;2023-07-16T12:06:14;2.80;;;2.60;;
2650;SDS011;1335;48.180;16.342;2023-07-16T12:08:41;2.50;;;2.30;;
2650;SDS011;1335;48.180;16.342;2023-07-16T12:11:08;2.50;;;2.40;;
2650;SDS011;1335;48.180;16.342;2023-07-16T12:13:35;4.90;;;2.93;;
2650;SDS011;1335;48.180;16.342;2023-07-16T12:16:03;6.27;;;2.43;;
2650;SDS011;1335;48.180;16.342;2023-07-16T12:18:31;3.70;;;2.67;;
2650;SDS011;1335;48.180;16.342;2023-07-16T12:20:58;2.60;;;2.50;;
2650;SDS011;1335;48.180;16.342;2023-07-16T12:23:26;3.10;;;2.90;;
2650;SDS011;1335;48.180;16.342;2023-07-16T12:25:53;2.60;;;2.40;;
2650;SDS011;1335;48.180;16.342;2023-07-16T12:28:20;3.00;;;2.80;;
2650;SDS011;1335;48.180;16.342;2023-07-16T12:30:48;2.50;;;2.30;;
2650;SDS011;1335;48.180;16.342;2023-07-16T12:33:15;3.27;;;2.27;;
2650;SDS011;1335;48.180;16.342;2023-07-16T12:35:44;2.50;;;2.30;;
2650;SDS011;1335;48.180;16.342;2023-07-16T12:38:12;2.80;;;2.60;;
2650;SDS011;1335;48.180;16.342;2023-07-16T12:40:39;2.40;;;2.20;;
2650;SDS011;1335;48.180;16.342;2023-07-16T12:43:07;3.50;;;3.30;;
2650;SDS011;1335;48.180;16.342;2023-07-16T12:45:34;2.57;;;2.33;;
2650;SDS011;1335;48.180;16.342;2023-07-16T12:48:01;2.57;;;2.37;;
2650;SDS011;1335;48.180;16.342;2023-07-16T12:50:28;2.53;;;2.43;;
2650;SDS011;1335;48.180;16.342;2023-07-16T12:52:57;2.53;;;2.30;;
2650;SDS011;1335;48.180;16.342;2023-07-16T12:55:24;4.07;;;3.77;;
2650;SDS011;1335;48.180;16.342;2023-07-16T12:57:51;3.07;;;2.87;;
2650;SDS011;1335;48.180;16.342;2023-07-16T13:00:19;5.97;;;5.57;;
2650;SDS011;1335;48.180;16.342;2023-07-16T13:02:46;3.67;;;3.37;;
2650;SDS011;1335;48.180;16.342;2023-07-16T13:05:13;4.20;;;3.90;;
2650;SDS011;1335;48.180;16.342;2023-07-16T13:07:41;3.10;;;2.50;;
2650;SDS011;1335;48.180;16.342;2023-07-16T13:10:10;3.13;;;2.80;;
2650;SDS011;1335;48.180;16.342;2023-07-16T13:12:37;5.33;;;3.03;;
2650;SDS011;1335;48.180;16.342;2023-07-16T13:15:05;2.50;;;2.40;;
2650;SDS011;1335;48.180;16.342;2023-07-16T13:17:32;3.63;;;3.33;;
2650;SDS011;1335;48.180;16.342;2023-07-16T13:19:59;2.80;;;2.60;;
2650;SDS011;1335;48.180;16.342;2023-07-16T13:22:28;2.17;;;1.97;;
2650;SDS011;1335;48.180;16.342;2023-07-16T13:24:55;3.53;;;2.20;;
2650;SDS011;1335;48.180;16.342;2023-07-16T13:27:24;2.30;;;2.10;;
2650;SDS011;1335;48.180;16.342;2023-07-16T13:29:51;2.77;;;2.03;;
2650;SDS011;1335;48.180;16.342;2023-07-16T13:32:18;4.00;;;2.50;;
2650;SDS011;1335;48.180;16.342;2023-07-16T13:34:45;2.77;;;2.57;;
2650;SDS011;1335;48.180;16.342;2023-07-16T13:37:13;3.90;;;2.00;;
2650;SDS011;1335;48.180;16.342;2023-07-16T13:39:40;2.27;;;2.07;;
2650;SDS011;1335;48.180;16.342;2023-07-16T13:42:07;3.43;;;2.50;;
2650;SDS011;1335;48.180;16.342;2023-07-16T13:44:37;2.60;;;2.40;;
2650;SDS011;1335;48.180;16.342;2023-07-16T13:47:04;2.17;;;2.07;;
2650;SDS011;1335;48.180;16.342;2023-07-16T13:49:32;2.30;;;2.10;;
2650;SDS011;1335;48.180;16.342;2023-07-16T13:51:59;3.00;;;2.40;;
2650;SDS011;1335;48.180;16.342;2023-07-16T13:54:26;2.80;;;2.03;;
2650;SDS011;1335;48.180;16.342;2023-07-16T13:56:53;2.30;;;2.13;;
2650;SDS011;1335;48.180;16.342;2023-07-16T13:59:21;2.23;;;2.07;;
2650;SDS011;1335;48.180;16.342;2023-07-16T14:01:58;3.53;;;2.80;;
2650;SDS011;1335;48.180;16.342;2023-07-16T14:04:26;2.17;;;1.93;;
2650;SDS011;1335;48.180;16.342;2023-07-16T14:06:53;2.20;;;2.10;;
2650;SDS011;1335;48.180;16.342;2023-07-16T14:09:21;3.40;;;3.10;;
2650;SDS011;1335;48.180;16.342;2023-07-16T14:11:48;5.07;;;2.27;;
2650;SDS011;1335;48.180;16.342;2023-07-16T14:14:16;2.60;;;2.40;;
2650;SDS011;1335;48.180;16.342;2023-07-16T14:16:45;2.50;;;2.40;;
2650;SDS011;1335;48.180;16.342;2023-07-16T14:19:16;2.50;;;2.30;;
2650;SDS011;1335;48.180;16.342;2023-07-16T14:21:43;2.70;;;2.50;;
2650;SDS011;1335;48.180;16.342;2023-07-16T14:24:10;4.07;;;2.50;;
2650;SDS011;1335;48.180;16.342;2023-07-16T14:26:38;2.60;;;2.50;;
2650;SDS011;1335;48.180;16.342;2023-07-16T14:29:05;2.30;;;2.20;;
2650;SDS011;1335;48.180;16.342;2023-07-16T14:31:32;2.27;;;2.07;;
2650;SDS011;1335;48.180;16.342;2023-07-16T14:34:00;2.30;;;2.20;;
2650;SDS011;1335;48.180;16.342;2023-07-16T14:36:29;3.33;;;2.10;;
2650;SDS011;1335;48.180;16.342;2023-07-16T14:38:57;14.60;;;13.23;;
2650;SDS011;1335;48.180;16.342;2023-07-16T14:41:24;4.13;;;3.83;;
2650;SDS011;1335;48.180;16.342;2023-07-16T14:43:51;4.43;;;4.03;;
2650;SDS011;1335;48.180;16.342;2023-07-16T14:46:19;2.20;;;2.10;;
2650;SDS011;1335;48.180;16.342;2023-07-16T14:48:46;2.73;;;2.53;;
2650;SDS011;1335;48.180;16.342;2023-07-16T14:51:17;2.83;;;2.63;;
2650;SDS011;1335;48.180;16.342;2023-07-16T14:53:46;2.30;;;2.13;;
2650;SDS011;1335;48.180;16.342;2023-07-16T14:56:13;2.10;;;1.90;;
2650;SDS011;1335;48.180;16.342;2023-07-16T14:58:40;2.50;;;2.30;;
2650;SDS011;1335;48.180;16.342;2023-07-16T15:01:08;2.33;;;1.90;;
2650;SDS011;1335;48.180;16.342;2023-07-16T15:03:35;4.10;;;3.80;;
2650;SDS011;1335;48.180;16.342;2023-07-16T15:06:07;2.50;;;2.30;;